createdAt,value
2023-03-11T00:01:12.753Z,1.10
2023-03-11T00:04:06.145Z,0.77
2023-03-11T00:07:00.447Z,1.10
2023-03-11T00:09:53.949Z,1.10
2023-03-11T00:12:47.033Z,1.20
2023-03-11T00:15:41.091Z,1.10
2023-03-11T00:18:33.994Z,1.17
2023-03-11T00:21:27.037Z,1.02
2023-03-11T00:24:21.234Z,0.93
2023-03-11T00:27:13.995Z,0.75
2023-03-11T00:30:08.523Z,1.08
2023-03-11T00:33:02.060Z,1.08
2023-03-11T00:35:55.011Z,1.17
2023-03-11T00:38:48.003Z,1.00
2023-03-11T00:41:42.638Z,1.00
2023-03-11T00:44:36.090Z,0.80
2023-03-11T00:47:29.177Z,0.88
2023-03-11T00:50:24.336Z,1.10
2023-03-11T00:53:18.381Z,1.08
2023-03-11T00:56:13.868Z,0.90
2023-03-11T00:59:08.599Z,1.05
2023-03-11T01:02:01.687Z,1.10
2023-03-11T01:04:55.428Z,1.02
2023-03-11T01:07:49.402Z,1.05
2023-03-11T01:10:42.841Z,1.27
2023-03-11T01:13:36.894Z,0.70
2023-03-11T01:16:31.571Z,1.10
2023-03-11T01:19:25.212Z,0.90
2023-03-11T01:22:18.682Z,0.82
2023-03-11T01:25:14.227Z,1.08
2023-03-11T01:28:08.383Z,0.73
2023-03-11T01:31:02.200Z,0.77
2023-03-11T01:33:56.029Z,0.95
2023-03-11T01:36:49.139Z,0.98
2023-03-11T01:39:42.071Z,1.00
2023-03-11T01:42:35.155Z,0.95
2023-03-11T01:45:43.736Z,0.88
2023-03-11T01:48:38.679Z,0.90
2023-03-11T01:51:36.684Z,0.80
2023-03-11T01:54:32.766Z,1.13
2023-03-11T01:57:26.062Z,0.80
2023-03-11T02:00:19.767Z,0.70
2023-03-11T02:03:18.428Z,0.60
2023-03-11T02:06:15.176Z,0.85
2023-03-11T02:09:09.539Z,0.90
2023-03-11T02:12:03.622Z,0.80
2023-03-11T02:14:56.992Z,0.85
2023-03-11T02:17:50.032Z,0.70
2023-03-11T02:20:48.301Z,0.52
2023-03-11T02:23:51.097Z,0.68
2023-03-11T02:26:53.068Z,0.77
2023-03-11T02:29:49.720Z,0.80
2023-03-11T02:32:45.186Z,0.68
2023-03-11T02:35:38.100Z,0.57
2023-03-11T02:38:31.021Z,0.77
2023-03-11T02:41:24.734Z,0.75
2023-03-11T02:44:19.688Z,0.80
2023-03-11T02:47:13.199Z,0.60
2023-03-11T02:50:10.381Z,0.73
2023-03-11T02:53:03.162Z,0.77
2023-03-11T02:55:56.014Z,1.00
2023-03-11T02:58:49.158Z,0.50
2023-03-11T03:01:43.275Z,0.68
2023-03-11T03:04:36.273Z,0.50
2023-03-11T03:07:29.293Z,1.08
2023-03-11T03:10:23.228Z,0.70
2023-03-11T03:13:16.242Z,0.70
2023-03-11T03:16:09.252Z,0.60
2023-03-11T03:19:03.185Z,0.80
2023-03-11T03:21:56.078Z,0.77
2023-03-11T03:24:49.077Z,0.55
2023-03-11T03:27:41.839Z,0.65
2023-03-11T03:30:34.943Z,0.55
2023-03-11T03:33:28.047Z,0.45
2023-03-11T03:36:22.407Z,0.60
2023-03-11T03:39:15.201Z,0.70
2023-03-11T03:42:08.671Z,0.70
2023-03-11T03:45:01.968Z,0.50
2023-03-11T03:47:55.085Z,0.80
2023-03-11T03:50:47.818Z,1.00
2023-03-11T03:53:43.092Z,0.60
2023-03-11T03:56:35.900Z,0.63
2023-03-11T03:59:29.112Z,0.63
2023-03-11T04:02:22.285Z,0.60
2023-03-11T04:05:15.545Z,0.47
2023-03-11T04:08:09.346Z,0.50
2023-03-11T04:11:04.310Z,0.55
2023-03-11T04:13:57.279Z,0.63
2023-03-11T04:16:50.371Z,0.40
2023-03-11T04:19:43.272Z,0.70
2023-03-11T04:22:36.261Z,0.40
2023-03-11T04:25:29.089Z,0.68
2023-03-11T04:28:23.621Z,0.60
2023-03-11T04:31:17.306Z,0.45
2023-03-11T04:34:09.871Z,0.45
2023-03-11T04:37:03.255Z,0.52
2023-03-11T04:39:56.047Z,0.38
2023-03-11T04:42:49.368Z,0.55
2023-03-11T04:45:43.588Z,0.50
2023-03-11T04:48:37.121Z,0.63
2023-03-11T04:51:30.125Z,0.55
2023-03-11T04:54:23.028Z,0.60
2023-03-11T04:57:16.074Z,0.70
2023-03-11T05:00:11.388Z,0.60
2023-03-11T05:03:05.415Z,0.40
2023-03-11T05:05:59.996Z,0.60
2023-03-11T05:08:53.055Z,0.55
2023-03-11T05:11:46.235Z,0.50
2023-03-11T05:14:39.745Z,0.70
2023-03-11T05:17:33.162Z,0.70
2023-03-11T05:20:27.356Z,0.40
2023-03-11T05:23:20.360Z,0.45
2023-03-11T05:26:13.257Z,0.40
2023-03-11T05:29:06.114Z,0.50
2023-03-11T05:31:59.212Z,0.50
2023-03-11T05:34:52.480Z,0.55
2023-03-11T05:37:49.529Z,0.50
2023-03-11T05:40:43.217Z,0.57
2023-03-11T05:43:36.125Z,0.85
2023-03-11T05:46:29.252Z,0.47
2023-03-11T05:49:22.346Z,0.50
2023-03-11T05:52:14.975Z,0.50
2023-03-11T05:55:12.247Z,0.40
2023-03-11T05:58:05.382Z,0.40
2023-03-11T06:00:59.203Z,0.77
2023-03-11T06:03:52.017Z,0.32
2023-03-11T06:06:45.505Z,0.50
2023-03-11T06:09:38.393Z,0.50
2023-03-11T06:12:35.304Z,0.60
2023-03-11T06:15:27.943Z,0.40
2023-03-11T06:18:21.101Z,0.40
2023-03-11T06:21:18.012Z,0.60
2023-03-11T06:24:11.276Z,0.55
2023-03-11T06:27:04.139Z,0.50
2023-03-11T06:29:58.428Z,0.60
2023-03-11T06:32:51.260Z,0.57
2023-03-11T06:35:44.399Z,0.50
2023-03-11T06:38:37.517Z,0.60
2023-03-11T06:41:30.340Z,0.55
2023-03-11T06:44:23.237Z,0.50
2023-03-11T06:47:17.526Z,0.40
2023-03-11T06:50:11.305Z,0.50
2023-03-11T06:53:06.742Z,0.55
2023-03-11T06:56:02.152Z,0.30
2023-03-11T06:58:55.286Z,0.43
2023-03-11T07:01:48.116Z,0.68
2023-03-11T07:04:42.418Z,0.40
2023-03-11T07:07:35.400Z,0.60
2023-03-11T07:10:28.431Z,0.52
2023-03-11T07:13:21.215Z,0.50
2023-03-11T07:16:16.903Z,0.52
2023-03-11T07:19:11.322Z,0.38
2023-03-11T07:22:05.510Z,0.60
2023-03-11T07:24:58.512Z,0.57
2023-03-11T07:27:51.270Z,0.57
2023-03-11T07:30:46.478Z,0.57
2023-03-11T07:33:39.837Z,0.50
2023-03-11T07:36:33.547Z,0.70
2023-03-11T07:39:28.439Z,0.40
2023-03-11T07:42:20.961Z,0.65
2023-03-11T07:45:14.120Z,0.50
2023-03-11T07:48:07.623Z,2.38
2023-03-11T07:51:03.689Z,2.42
2023-03-11T07:53:59.051Z,1.80
2023-03-11T07:56:53.744Z,1.83
2023-03-11T07:59:47.194Z,1.70
2023-03-11T08:02:40.460Z,1.63
2023-03-11T08:05:35.327Z,1.70
2023-03-11T08:08:28.390Z,1.65
2023-03-11T08:11:22.322Z,1.40
2023-03-11T08:14:16.613Z,1.55
2023-03-11T08:17:09.383Z,1.98
2023-03-11T08:20:02.456Z,1.58
2023-03-11T08:22:58.359Z,1.45
2023-03-11T08:25:51.092Z,1.35
2023-03-11T08:28:44.747Z,1.45
2023-03-11T08:31:39.986Z,1.55
2023-03-11T08:34:35.022Z,1.40
2023-03-11T08:37:28.934Z,1.50
2023-03-11T08:40:22.569Z,1.30
2023-03-11T08:43:16.230Z,1.63
2023-03-11T08:46:09.041Z,1.50
2023-03-11T08:49:04.858Z,1.35
2023-03-11T08:51:58.489Z,1.58
2023-03-11T08:54:51.436Z,1.35
2023-03-11T08:57:44.656Z,1.30
2023-03-11T09:00:37.490Z,1.20
2023-03-11T09:03:32.661Z,1.30
2023-03-11T09:06:26.973Z,1.00
2023-03-11T09:09:20.439Z,1.30
2023-03-11T09:12:14.110Z,1.20
2023-03-11T09:15:07.983Z,1.30
2023-03-11T09:18:01.304Z,1.20
2023-03-11T09:20:58.097Z,1.15
2023-03-11T09:23:53.009Z,1.50
2023-03-11T09:26:45.983Z,1.60
2023-03-11T09:29:39.645Z,1.17
2023-03-11T09:32:32.412Z,1.23
2023-03-11T09:35:25.660Z,1.15
2023-03-11T09:38:18.248Z,0.90
2023-03-11T09:41:23.854Z,1.30
2023-03-11T09:44:23.284Z,1.65
2023-03-11T09:47:38.741Z,0.88
2023-03-11T09:50:34.088Z,1.35
2023-03-11T09:53:36.274Z,1.48
2023-03-11T09:56:31.347Z,1.30
2023-03-11T09:59:28.772Z,1.10
2023-03-11T10:02:26.448Z,0.88
2023-03-11T10:05:24.415Z,1.08
2023-03-11T10:08:24.145Z,1.33
2023-03-11T10:11:47.085Z,1.25
2023-03-11T10:14:52.254Z,1.10
2023-03-11T10:17:55.472Z,1.13
2023-03-11T10:20:57.701Z,0.80
2023-03-11T10:24:06.799Z,1.02
2023-03-11T10:27:06.266Z,1.00
2023-03-11T10:30:05.797Z,1.20
2023-03-11T10:33:04.250Z,1.08
2023-03-11T10:36:04.016Z,1.00
2023-03-11T10:38:57.468Z,1.13
2023-03-11T10:41:55.392Z,0.95
2023-03-11T10:44:52.217Z,1.42
2023-03-11T10:47:45.477Z,0.77
2023-03-11T10:50:42.118Z,1.20
2023-03-11T10:53:47.230Z,1.33
2023-03-11T10:56:42.160Z,1.25
2023-03-11T10:59:47.068Z,1.00
2023-03-11T11:02:50.735Z,1.17
2023-03-11T11:05:43.752Z,0.98
2023-03-11T11:08:36.885Z,0.90
2023-03-11T11:11:30.395Z,0.90
2023-03-11T11:14:23.890Z,1.33
2023-03-11T11:17:21.314Z,0.70
2023-03-11T11:20:19.503Z,1.05
2023-03-11T11:23:27.245Z,0.90
2023-03-11T11:26:23.474Z,1.00
2023-03-11T11:29:16.872Z,1.15
2023-03-11T11:32:25.487Z,1.40
2023-03-11T11:35:20.472Z,1.02
2023-03-11T11:38:13.789Z,1.27
2023-03-11T11:41:07.447Z,1.15
2023-03-11T11:44:04.006Z,1.10
2023-03-11T11:47:00.566Z,1.40
2023-03-11T11:49:57.117Z,1.10
2023-03-11T11:52:56.422Z,1.50
2023-03-11T11:55:52.497Z,1.10
2023-03-11T11:58:46.084Z,1.00
2023-03-11T12:01:45.327Z,1.05
2023-03-11T12:04:56.052Z,0.88
2023-03-11T12:08:00.117Z,1.10
2023-03-11T12:10:59.156Z,1.10
2023-03-11T12:14:02.112Z,1.10
2023-03-11T12:16:58.629Z,1.00
2023-03-11T12:19:56.387Z,1.13
2023-03-11T12:23:11.225Z,1.20
2023-03-11T12:26:16.805Z,1.05
2023-03-11T12:29:19.923Z,0.85
2023-03-11T12:32:24.397Z,1.00
2023-03-11T12:35:24.426Z,0.88
2023-03-11T12:38:26.146Z,0.93
2023-03-11T12:41:33.766Z,0.88
2023-03-11T12:44:28.707Z,1.05
2023-03-11T12:47:27.221Z,1.08
2023-03-11T12:50:43.524Z,0.80
2023-03-11T12:53:46.627Z,1.15
2023-03-11T12:56:44.254Z,1.08
2023-03-11T13:00:01.069Z,1.00
2023-03-11T13:03:33.214Z,1.00
2023-03-11T13:07:08.483Z,0.95
2023-03-11T13:10:11.896Z,1.40
2023-03-11T13:13:38.281Z,1.05
2023-03-11T13:16:39.421Z,1.42
2023-03-11T13:19:51.209Z,0.73
2023-03-11T13:23:16.384Z,0.95
2023-03-11T13:26:37.160Z,1.35
2023-03-11T13:29:53.981Z,0.77
2023-03-11T13:33:24.217Z,0.82
2023-03-11T13:36:37.536Z,1.00
2023-03-11T13:39:49.476Z,1.20
2023-03-11T13:42:47.707Z,0.90
2023-03-11T13:45:40.770Z,0.98
2023-03-11T13:48:40.444Z,0.68
2023-03-11T13:51:39.149Z,1.00
2023-03-11T13:54:44.701Z,0.90
2023-03-11T13:57:38.878Z,1.15
2023-03-11T14:00:33.916Z,0.73
2023-03-11T14:03:33.317Z,1.00
2023-03-11T14:06:31.632Z,1.10
2023-03-11T14:09:26.430Z,0.73
2023-03-11T14:12:19.672Z,0.98
2023-03-11T14:15:17.309Z,0.82
2023-03-11T14:18:33.855Z,0.90
2023-03-11T14:21:27.760Z,0.90
2023-03-11T14:24:23.783Z,0.90
2023-03-11T14:27:18.371Z,1.05
2023-03-11T14:30:21.389Z,1.35
2023-03-11T14:33:22.965Z,1.55
2023-03-11T14:36:18.822Z,1.10
2023-03-11T14:39:25.401Z,1.33
2023-03-11T14:42:22.895Z,1.00
2023-03-11T14:45:19.152Z,1.40
2023-03-11T14:48:20.144Z,1.45
2023-03-11T14:51:19.551Z,1.20
2023-03-11T14:54:18.821Z,1.52
2023-03-11T14:57:20.514Z,1.35
2023-03-11T15:00:20.173Z,1.40
2023-03-11T15:03:23.455Z,1.33
2023-03-11T15:06:20.821Z,1.30
2023-03-11T15:09:16.273Z,1.20
2023-03-11T15:12:35.395Z,1.00
2023-03-11T15:15:29.923Z,1.33
2023-03-11T15:18:24.995Z,1.20
2023-03-11T15:21:21.047Z,1.70
2023-03-11T15:24:20.935Z,1.50
2023-03-11T15:27:27.950Z,1.58
2023-03-11T15:30:26.181Z,1.20
2023-03-11T15:33:24.512Z,1.60
2023-03-11T15:36:31.321Z,1.67
2023-03-11T15:39:41.086Z,1.30
2023-03-11T15:42:34.725Z,1.48
2023-03-11T15:45:29.637Z,1.20
2023-03-11T15:48:23.259Z,1.67
2023-03-11T15:51:20.730Z,1.50
2023-03-11T15:54:13.754Z,1.30
2023-03-11T15:57:11.733Z,1.25
2023-03-11T16:00:09.240Z,1.40
2023-03-11T16:03:03.922Z,1.27
2023-03-11T16:05:56.400Z,1.38
2023-03-11T16:08:49.532Z,1.10
2023-03-11T16:11:44.199Z,1.02
2023-03-11T16:14:37.840Z,0.93
2023-03-11T16:17:46.846Z,1.33
2023-03-11T16:20:47.397Z,1.20
2023-03-11T16:23:51.235Z,1.30
2023-03-11T16:26:45.608Z,1.35
2023-03-11T16:29:39.087Z,1.50
2023-03-11T16:32:32.936Z,1.13
2023-03-11T16:35:26.118Z,1.00
2023-03-11T16:38:23.092Z,1.05
2023-03-11T16:41:17.537Z,0.90
2023-03-11T16:44:10.974Z,1.27
2023-03-11T16:47:03.732Z,0.93
2023-03-11T16:49:56.576Z,1.10
2023-03-11T16:52:49.539Z,0.82
2023-03-11T16:55:45.780Z,1.20
2023-03-11T16:58:38.683Z,0.90
2023-03-11T17:01:31.960Z,1.08
2023-03-11T17:04:24.856Z,1.10
2023-03-11T17:07:17.984Z,0.82
2023-03-11T17:10:12.811Z,1.15
2023-03-11T17:13:07.968Z,1.20
2023-03-11T17:16:00.826Z,1.10
2023-03-11T17:18:53.819Z,1.17
2023-03-11T17:21:46.828Z,0.70
2023-03-11T17:24:39.951Z,0.90
2023-03-11T17:27:33.783Z,1.10
2023-03-11T17:30:36.821Z,1.08
2023-03-11T17:33:30.927Z,1.38
2023-03-11T17:36:24.250Z,1.08
2023-03-11T17:39:17.872Z,1.00
2023-03-11T17:42:10.779Z,1.38
2023-03-11T17:45:03.971Z,1.80
2023-03-11T17:47:59.369Z,1.50
2023-03-11T17:50:52.552Z,1.38
2023-03-11T17:53:46.838Z,1.08
2023-03-11T17:56:39.680Z,1.52
2023-03-11T17:59:32.977Z,1.23
2023-03-11T18:02:26.018Z,1.30
2023-03-11T18:05:20.259Z,1.40
2023-03-11T18:08:13.647Z,1.15
2023-03-11T18:11:09.423Z,1.45
2023-03-11T18:14:02.769Z,1.30
2023-03-11T18:16:56.054Z,1.35
2023-03-11T18:19:49.644Z,1.20
2023-03-11T18:22:46.747Z,1.48
2023-03-11T18:25:40.839Z,1.50
2023-03-11T18:28:34.111Z,1.13
2023-03-11T18:31:27.993Z,1.45
2023-03-11T18:34:20.946Z,1.30
2023-03-11T18:37:13.900Z,1.52
2023-03-11T18:40:09.393Z,1.13
2023-03-11T18:43:02.648Z,1.30
2023-03-11T18:45:55.795Z,1.50
2023-03-11T18:48:48.963Z,1.20
2023-03-11T18:51:42.077Z,1.02
2023-03-11T18:54:34.776Z,0.98
2023-03-11T18:57:29.045Z,1.33
2023-03-11T19:00:23.542Z,1.38
2023-03-11T19:03:16.916Z,1.35
2023-03-11T19:06:10.656Z,1.38
2023-03-11T19:09:05.456Z,1.08
2023-03-11T19:11:58.847Z,1.38
2023-03-11T19:14:53.178Z,0.95
2023-03-11T19:17:54.533Z,1.08
2023-03-11T19:20:58.953Z,1.40
2023-03-11T19:23:54.920Z,1.10
2023-03-11T19:26:47.833Z,1.10
2023-03-11T19:29:40.914Z,1.00
2023-03-11T19:32:35.218Z,1.30
2023-03-11T19:35:28.829Z,1.00
2023-03-11T19:38:23.201Z,1.63
2023-03-11T19:41:19.242Z,0.90
2023-03-11T19:44:13.083Z,0.98
2023-03-11T19:47:05.780Z,1.13
2023-03-11T19:50:00.381Z,1.02
2023-03-11T19:52:54.049Z,1.15
2023-03-11T19:55:47.719Z,1.20
2023-03-11T19:58:42.448Z,1.10
2023-03-11T20:01:35.658Z,0.80
2023-03-11T20:04:29.023Z,1.17
2023-03-11T20:07:23.579Z,1.23
2023-03-11T20:10:17.693Z,1.10
2023-03-11T20:13:11.736Z,0.90
2023-03-11T20:16:10.142Z,1.08
2023-03-11T20:19:02.791Z,1.33
2023-03-11T20:21:55.770Z,1.17
2023-03-11T20:24:50.374Z,0.88
2023-03-11T20:27:43.605Z,1.02
2023-03-11T20:30:38.994Z,1.02
2023-03-11T20:33:32.307Z,1.13
2023-03-11T20:36:28.320Z,1.10
2023-03-11T20:39:21.867Z,0.95
2023-03-11T20:42:16.181Z,0.75
2023-03-11T20:45:10.109Z,1.00
2023-03-11T20:48:03.221Z,2.60
2023-03-11T20:50:56.384Z,5.03
2023-03-11T20:53:50.357Z,4.20
2023-03-11T20:56:44.125Z,3.65
2023-03-11T20:59:38.501Z,3.13
2023-03-11T21:02:33.606Z,3.10
2023-03-11T21:05:27.322Z,3.25
2023-03-11T21:08:20.931Z,3.53
2023-03-11T21:11:15.084Z,2.95
2023-03-11T21:14:08.787Z,3.22
2023-03-11T21:17:03.627Z,2.90
2023-03-11T21:19:57.155Z,3.03
2023-03-11T21:22:49.930Z,2.88
2023-03-11T21:25:43.574Z,2.40
2023-03-11T21:28:39.027Z,2.33
2023-03-11T21:31:32.041Z,2.78
2023-03-11T21:34:26.795Z,3.30
2023-03-11T21:37:20.278Z,2.80
2023-03-11T21:40:15.121Z,3.03
2023-03-11T21:43:08.407Z,3.05
2023-03-11T21:46:02.112Z,3.00
2023-03-11T21:48:55.119Z,2.47
2023-03-11T21:51:49.110Z,2.85
2023-03-11T21:54:42.425Z,2.38
2023-03-11T21:57:36.276Z,3.03
2023-03-11T22:00:29.007Z,2.80
2023-03-11T22:03:23.051Z,2.60
2023-03-11T22:06:16.098Z,2.58
2023-03-11T22:09:10.736Z,2.85
2023-03-11T22:12:03.846Z,2.60
2023-03-11T22:14:57.029Z,2.40
2023-03-11T22:17:49.901Z,2.88
2023-03-11T22:20:44.345Z,2.95
2023-03-11T22:23:38.084Z,2.67
2023-03-11T22:26:32.442Z,2.70
2023-03-11T22:29:26.083Z,3.40
2023-03-11T22:32:19.334Z,2.90
2023-03-11T22:35:13.135Z,2.70
2023-03-11T22:38:07.285Z,2.50
2023-03-11T22:41:00.811Z,2.80
2023-03-11T22:43:55.384Z,2.75
2023-03-11T22:46:49.267Z,2.60
2023-03-11T22:49:42.729Z,2.72
2023-03-11T22:52:35.801Z,2.70
2023-03-11T22:55:29.843Z,2.90
2023-03-11T22:58:23.138Z,2.65
2023-03-11T23:01:17.406Z,2.35
2023-03-11T23:04:11.055Z,2.80
2023-03-11T23:07:04.566Z,2.60
2023-03-11T23:09:58.192Z,2.92
2023-03-11T23:12:51.742Z,2.80
2023-03-11T23:15:47.796Z,2.80
2023-03-11T23:18:44.276Z,2.80
2023-03-11T23:21:37.099Z,2.72
2023-03-11T23:24:29.894Z,3.08
2023-03-11T23:27:23.222Z,2.80
2023-03-11T23:30:17.984Z,2.85
2023-03-11T23:33:11.002Z,2.95
2023-03-11T23:36:07.764Z,2.83
2023-03-11T23:39:01.080Z,2.80
2023-03-11T23:41:54.256Z,2.35
2023-03-11T23:44:47.131Z,2.63
2023-03-11T23:47:40.238Z,2.70
2023-03-11T23:50:33.015Z,2.50
2023-03-11T23:53:28.841Z,2.80
2023-03-11T23:56:21.970Z,2.80
2023-03-11T23:59:15.343Z,2.88
